Terminal Aerodrome Forecast
Issued by NWS Boston, MA

Home | Current Version | Previous Version | Text Only | Print | Product List | Glossary On
Versions: 1 2 3 4 5 6 7 8 9 10 11 12 13 14 15 16 17 18 19 20 21 22 23 24 25 26 27 28 29 30 31 32 33 34 35 36 37 38 39 40 41 42 43 44 45 46 47 48 49 50
000
FTUS41 KBOX 252114 AAB
TAFBOS
TAF AMD
KBOS 252114Z 2521/2624 03005KT P6SM BKN015
     FM260000 02005KT P6SM BKN050
     FM260200 04004KT P6SM SCT250
     FM261900 10007KT P6SM OVC050
     FM262300 11006KT P6SM VCSH OVC050=

USA.gov is the U.S. government's official web portal to all federal, state and local government web resources and services.